createdAt,value
2019-02-21T00:02:22.255Z,25.30
2019-02-21T00:05:10.476Z,23.50
2019-02-21T00:07:58.689Z,28.63
2019-02-21T00:10:46.884Z,20.93
2019-02-21T00:13:35.108Z,24.47
2019-02-21T00:16:23.310Z,26.10
2019-02-21T00:19:11.560Z,25.20
2019-02-21T00:21:59.799Z,21.20
2019-02-21T00:24:29.169Z,21.30
2019-02-21T00:26:58.264Z,28.23
2019-02-21T00:29:47.296Z,22.50
2019-02-21T00:32:35.516Z,26.30
2019-02-21T00:35:23.785Z,22.73
2019-02-21T00:38:11.980Z,25.47
2019-02-21T00:41:00.273Z,23.30
2019-02-21T00:43:48.481Z,22.33
2019-02-21T00:46:36.690Z,22.67
2019-02-21T00:49:24.972Z,23.87
2019-02-21T00:52:13.427Z,22.60
2019-02-21T00:55:01.651Z,25.90
2019-02-21T00:57:49.860Z,29.30
2019-02-21T01:00:46.058Z,26.03
2019-02-21T01:03:28.366Z,30.43
2019-02-21T01:06:16.579Z,21.60
2019-02-21T01:12:13.106Z,20.97
2019-02-21T01:14:54.295Z,24.33
2019-02-21T01:20:18.159Z,25.50
2019-02-21T01:25:40.904Z,25.73
2019-02-21T01:28:10.024Z,21.40
2019-02-21T01:30:58.578Z,23.07
2019-02-21T01:33:28.217Z,28.33
2019-02-21T01:36:16.442Z,39.33
2019-02-21T01:39:05.521Z,56.60
2019-02-21T01:41:53.854Z,30.03
2019-02-21T01:44:42.375Z,33.00
2019-02-21T01:47:30.556Z,26.03
2019-02-21T01:50:18.782Z,32.23
2019-02-21T01:53:07.335Z,28.53
2019-02-21T01:55:50.955Z,27.60
2019-02-21T02:01:14.613Z,25.67
2019-02-21T02:03:55.478Z,22.90
2019-02-21T02:06:35.885Z,27.13
2019-02-21T02:09:16.569Z,22.60
2019-02-21T02:14:39.523Z,27.73
2019-02-21T02:17:19.951Z,28.10
2019-02-21T02:20:00.744Z,23.87
2019-02-21T02:22:41.991Z,25.57
2019-02-21T02:25:22.824Z,24.57
2019-02-21T02:28:03.644Z,32.43
2019-02-21T02:30:44.584Z,27.70
2019-02-21T02:36:08.440Z,23.53
2019-02-21T02:38:37.577Z,28.20
2019-02-21T02:41:25.812Z,25.73
2019-02-21T02:44:14.212Z,29.20
2019-02-21T02:46:43.733Z,30.33
2019-02-21T02:49:31.959Z,27.20
2019-02-21T02:52:01.494Z,27.23
2019-02-21T02:54:30.629Z,27.23
2019-02-21T02:56:59.933Z,25.53
2019-02-21T02:59:48.189Z,30.83
2019-02-21T03:02:36.387Z,25.30
2019-02-21T03:05:24.792Z,24.07
2019-02-21T03:08:13.278Z,30.63
2019-02-21T03:11:02.100Z,28.07
2019-02-21T03:13:50.310Z,25.33
2019-02-21T03:16:38.823Z,22.60
2019-02-21T03:19:07.954Z,28.50
2019-02-21T03:21:56.195Z,25.20
2019-02-21T03:24:44.683Z,23.80
2019-02-21T03:27:32.928Z,29.03
2019-02-21T03:30:21.239Z,26.57
2019-02-21T03:33:09.543Z,27.80
2019-02-21T03:35:38.781Z,28.80
2019-02-21T03:38:27.454Z,26.00
2019-02-21T03:41:15.716Z,20.93
2019-02-21T03:43:45.106Z,25.80
2019-02-21T03:46:33.688Z,24.40
2019-02-21T03:49:21.916Z,31.60
2019-02-21T03:52:10.146Z,27.40
2019-02-21T03:54:58.347Z,25.40
2019-02-21T03:57:27.552Z,27.50
2019-02-21T04:00:15.751Z,27.03
2019-02-21T04:03:04.708Z,25.07
2019-02-21T04:05:52.935Z,25.03
2019-02-21T04:08:41.424Z,29.20
2019-02-21T04:11:29.663Z,29.33
2019-02-21T04:17:26.848Z,22.30
2019-02-21T04:19:56.297Z,29.03
2019-02-21T04:22:44.528Z,30.70
2019-02-21T04:25:32.739Z,23.40
2019-02-21T04:28:20.961Z,27.13
2019-02-21T04:31:09.480Z,33.07
2019-02-21T04:33:57.690Z,30.83
2019-02-21T04:36:46.165Z,30.80
2019-02-21T04:39:34.369Z,32.87
2019-02-21T04:42:23.130Z,35.07
2019-02-21T04:45:11.340Z,29.47
2019-02-21T04:47:59.576Z,30.97
2019-02-21T04:50:47.792Z,32.07
2019-02-21T04:53:36.015Z,30.40
2019-02-21T04:56:17.799Z,33.43
2019-02-21T04:58:58.624Z,33.57
2019-02-21T05:01:40.380Z,31.73
2019-02-21T05:04:21.280Z,33.43
2019-02-21T05:07:02.666Z,32.00
2019-02-21T05:09:31.819Z,39.37
2019-02-21T05:12:20.321Z,39.63
2019-02-21T05:15:08.603Z,30.77
2019-02-21T05:17:57.158Z,43.00
2019-02-21T05:20:45.441Z,34.27
2019-02-21T05:23:36.596Z,36.73
2019-02-21T05:29:11.519Z,37.40
2019-02-21T05:32:18.809Z,37.10
2019-02-21T05:35:26.280Z,33.63
2019-02-21T05:38:25.260Z,28.80
2019-02-21T05:41:32.794Z,36.73
2019-02-21T05:44:29.719Z,28.90
2019-02-21T05:47:36.968Z,31.60
2019-02-21T05:50:44.220Z,40.53
2019-02-21T05:53:51.499Z,30.90
2019-02-21T05:56:59.077Z,33.53
2019-02-21T06:00:06.308Z,37.47
2019-02-21T06:03:13.890Z,29.83
2019-02-21T06:06:11.526Z,26.57
2019-02-21T06:09:18.781Z,34.73
2019-02-21T06:12:33.742Z,32.93
2019-02-21T06:15:23.457Z,32.97
2019-02-21T06:18:19.425Z,27.50
2019-02-21T06:21:07.577Z,29.50
2019-02-21T06:23:44.522Z,27.10
2019-02-21T06:26:51.763Z,28.13
2019-02-21T06:29:45.264Z,29.87
2019-02-21T06:32:33.520Z,26.43
2019-02-21T06:35:22.056Z,30.87
2019-02-21T06:38:10.290Z,29.93
2019-02-21T06:40:58.750Z,39.10
2019-02-21T06:43:47.058Z,40.33
2019-02-21T06:46:35.544Z,34.07
2019-02-21T06:49:32.167Z,33.03
2019-02-21T06:52:15.584Z,30.27
2019-02-21T06:55:03.923Z,26.53
2019-02-21T06:57:52.251Z,31.30
2019-02-21T07:00:40.799Z,30.43
2019-02-21T07:03:21.704Z,32.67
2019-02-21T07:08:45.218Z,34.63
2019-02-21T07:11:26.187Z,38.00
2019-02-21T07:14:07.326Z,38.17
2019-02-21T07:19:31.197Z,38.63
2019-02-21T07:22:17.702Z,41.10
2019-02-21T07:24:59.022Z,33.97
2019-02-21T07:27:39.632Z,28.93
2019-02-21T07:30:23.039Z,31.27
2019-02-21T07:33:03.051Z,33.50
2019-02-21T07:35:43.931Z,32.87
2019-02-21T07:38:24.927Z,34.93
2019-02-21T07:41:05.853Z,29.30
2019-02-21T07:43:47.200Z,29.47
2019-02-21T07:46:16.351Z,30.93
2019-02-21T07:48:57.967Z,34.10
2019-02-21T07:51:41.401Z,33.73
2019-02-21T07:54:22.238Z,37.07
2019-02-21T07:57:03.300Z,33.20
2019-02-21T07:59:44.258Z,30.10
2019-02-21T08:02:25.107Z,29.17
2019-02-21T08:05:05.603Z,31.43
2019-02-21T08:07:49.645Z,31.40
2019-02-21T08:10:33.566Z,31.10
2019-02-21T08:13:12.833Z,30.43
2019-02-21T08:15:53.952Z,33.03
2019-02-21T08:18:34.699Z,25.50
2019-02-21T08:23:59.239Z,36.43
2019-02-21T08:26:40.518Z,29.03
2019-02-21T08:29:21.312Z,27.40
2019-02-21T08:32:01.884Z,34.23
2019-02-21T08:34:48.051Z,32.87
2019-02-21T08:40:11.620Z,35.00
2019-02-21T08:45:35.768Z,40.17
2019-02-21T08:48:16.905Z,34.17
2019-02-21T08:50:57.820Z,39.33
2019-02-21T08:53:38.277Z,35.90
2019-02-21T08:56:19.157Z,34.47
2019-02-21T08:58:59.998Z,34.27
2019-02-21T09:01:40.461Z,35.43
2019-02-21T09:04:27.323Z,35.27
2019-02-21T09:07:04.297Z,30.87
2019-02-21T09:09:45.495Z,37.67
2019-02-21T09:12:26.859Z,34.67
2019-02-21T09:14:59.032Z,30.03
2019-02-21T09:17:47.274Z,33.90
2019-02-21T09:20:35.787Z,32.03
2019-02-21T09:23:24.272Z,36.43
2019-02-21T09:26:12.783Z,34.30
2019-02-21T09:29:01.307Z,36.67
2019-02-21T09:31:49.824Z,65.73
2019-02-21T09:34:38.046Z,41.03
2019-02-21T09:37:26.249Z,44.77
2019-02-21T09:40:14.480Z,33.83
2019-02-21T09:43:03.020Z,38.83
2019-02-21T09:45:32.868Z,36.27
2019-02-21T09:48:03.230Z,32.93
2019-02-21T09:50:44.016Z,34.40
2019-02-21T09:53:25.243Z,30.03
2019-02-21T09:56:06.757Z,36.50
2019-02-21T09:58:47.638Z,32.30
2019-02-21T10:01:28.499Z,34.60
2019-02-21T10:06:52.190Z,45.00
2019-02-21T10:09:32.888Z,38.27
2019-02-21T10:12:13.335Z,38.77
2019-02-21T10:14:54.056Z,38.60
2019-02-21T10:17:35.504Z,35.47
2019-02-21T10:20:15.923Z,34.03
2019-02-21T10:22:56.419Z,40.63
2019-02-21T10:25:37.688Z,46.50
2019-02-21T10:31:01.956Z,40.43
2019-02-21T10:36:25.487Z,39.20
2019-02-21T10:41:37.681Z,33.20
2019-02-21T10:44:06.799Z,38.73
2019-02-21T10:46:36.353Z,36.17
2019-02-21T10:49:05.515Z,35.57
2019-02-21T10:51:34.896Z,35.77
2019-02-21T10:54:04.013Z,37.30
2019-02-21T10:56:33.152Z,37.43
2019-02-21T10:59:02.348Z,33.90
2019-02-21T11:01:31.759Z,33.13
2019-02-21T11:04:01.115Z,37.80
2019-02-21T11:06:30.311Z,34.23
2019-02-21T11:08:59.508Z,43.53
2019-02-21T11:11:28.979Z,36.23
2019-02-21T11:13:58.644Z,33.83
2019-02-21T11:16:28.022Z,35.53
2019-02-21T11:18:57.556Z,34.40
2019-02-21T11:21:26.990Z,39.20
2019-02-21T11:23:56.200Z,35.20
2019-02-21T11:26:25.838Z,36.13
2019-02-21T11:28:55.000Z,33.57
2019-02-21T11:31:24.420Z,31.23
2019-02-21T11:33:53.552Z,34.20
2019-02-21T11:36:22.979Z,40.53
2019-02-21T11:38:52.357Z,36.60
2019-02-21T11:41:21.492Z,40.57
2019-02-21T11:43:50.858Z,32.70
2019-02-21T11:46:20.132Z,34.40
2019-02-21T11:48:49.233Z,36.37
2019-02-21T11:51:18.876Z,42.63
2019-02-21T11:53:48.295Z,38.53
2019-02-21T11:56:17.772Z,40.00
2019-02-21T11:58:47.167Z,34.67
2019-02-21T12:01:16.622Z,56.90
2019-02-21T12:03:45.767Z,32.97
2019-02-21T12:06:14.948Z,37.10
2019-02-21T12:08:44.070Z,34.47
2019-02-21T12:11:13.702Z,40.37
2019-02-21T12:13:43.107Z,34.17
2019-02-21T12:16:12.419Z,36.07
2019-02-21T12:18:41.832Z,37.90
2019-02-21T12:21:11.069Z,32.13
2019-02-21T12:23:40.559Z,31.67
2019-02-21T12:26:09.706Z,34.67
2019-02-21T12:28:38.956Z,35.10
2019-02-21T12:31:08.147Z,35.93
2019-02-21T12:33:37.374Z,36.67
2019-02-21T12:36:06.587Z,28.97
2019-02-21T12:38:35.848Z,37.07
2019-02-21T12:41:05.045Z,37.60
2019-02-21T12:43:34.268Z,33.20
2019-02-21T12:46:03.451Z,33.83
2019-02-21T12:48:32.755Z,36.43
2019-02-21T12:51:01.977Z,40.17
2019-02-21T12:53:31.635Z,36.90
2019-02-21T12:56:01.073Z,36.40
2019-02-21T12:58:30.208Z,41.77
2019-02-21T13:00:59.424Z,35.67
2019-02-21T13:03:28.630Z,32.37
2019-02-21T13:05:58.084Z,35.10
2019-02-21T13:08:27.343Z,35.47
2019-02-21T13:10:56.465Z,35.67
2019-02-21T13:13:25.600Z,34.67
2019-02-21T13:15:55.286Z,44.33
2019-02-21T13:18:24.672Z,34.03
2019-02-21T13:20:53.779Z,37.03
2019-02-21T13:23:22.933Z,34.40
2019-02-21T13:25:52.280Z,34.23
2019-02-21T13:28:21.420Z,36.17
2019-02-21T13:30:50.548Z,34.37
2019-02-21T13:33:20.017Z,33.87
2019-02-21T13:35:52.553Z,37.77
2019-02-21T13:38:20.769Z,37.00
2019-02-21T13:40:50.398Z,32.07
2019-02-21T13:43:19.805Z,37.33
2019-02-21T13:45:48.907Z,35.10
2019-02-21T13:48:18.035Z,36.53
2019-02-21T13:50:47.152Z,31.00
2019-02-21T13:53:16.299Z,36.87
2019-02-21T13:55:45.668Z,36.80
2019-02-21T13:58:15.475Z,34.90
2019-02-21T14:00:44.580Z,38.00
2019-02-21T14:03:13.803Z,31.90
2019-02-21T14:05:43.183Z,35.00
2019-02-21T14:08:12.319Z,32.90
2019-02-21T14:10:41.699Z,40.33
2019-02-21T14:13:11.883Z,34.23
2019-02-21T14:15:41.169Z,32.37
2019-02-21T14:18:10.830Z,37.80
2019-02-21T14:20:45.293Z,33.73
2019-02-21T14:23:11.094Z,37.67
2019-02-21T14:25:41.193Z,42.07
2019-02-21T14:28:10.532Z,35.80
2019-02-21T14:30:39.675Z,37.50
2019-02-21T14:33:08.887Z,37.23
2019-02-21T14:35:38.294Z,34.13
2019-02-21T14:38:07.432Z,36.57
2019-02-21T14:40:37.128Z,40.33
2019-02-21T14:43:06.337Z,34.10
2019-02-21T14:45:35.467Z,37.77
2019-02-21T14:48:04.663Z,35.47
2019-02-21T14:50:35.909Z,31.40
2019-02-21T14:53:04.893Z,37.40
2019-02-21T14:55:34.280Z,35.70
2019-02-21T14:58:03.440Z,30.90
2019-02-21T15:00:32.548Z,31.27
2019-02-21T15:03:02.093Z,43.13
2019-02-21T15:05:31.288Z,37.97
2019-02-21T15:08:00.498Z,32.17
2019-02-21T15:10:29.637Z,30.80
2019-02-21T15:12:58.743Z,33.40
2019-02-21T15:15:28.173Z,30.83
2019-02-21T15:18:06.951Z,35.73
2019-02-21T15:20:36.458Z,33.87
2019-02-21T15:22:59.011Z,34.77
2019-02-21T15:25:28.414Z,34.03
2019-02-21T15:27:57.786Z,30.73
2019-02-21T15:30:27.473Z,34.03
2019-02-21T15:32:56.643Z,30.93
2019-02-21T15:35:26.056Z,32.30
2019-02-21T15:37:55.478Z,38.10
2019-02-21T15:40:24.638Z,35.53
2019-02-21T15:42:53.833Z,37.13
2019-02-21T15:45:24.364Z,35.30
2019-02-21T15:47:53.737Z,31.60
2019-02-21T15:50:23.234Z,46.70
2019-02-21T15:52:52.420Z,35.30
2019-02-21T15:55:21.901Z,37.50
2019-02-21T15:58:00.561Z,39.07
2019-02-21T16:00:22.221Z,37.50
2019-02-21T16:02:51.333Z,32.60
2019-02-21T16:05:20.784Z,36.07
2019-02-21T16:07:49.905Z,36.57
2019-02-21T16:10:20.797Z,32.73
2019-02-21T16:12:50.726Z,36.00
2019-02-21T16:15:20.392Z,33.03
2019-02-21T16:17:49.815Z,34.40
2019-02-21T16:20:19.006Z,35.60
2019-02-21T16:22:48.135Z,30.23
2019-02-21T16:25:19.285Z,36.60
2019-02-21T16:27:48.387Z,35.63
2019-02-21T16:30:17.795Z,37.40
2019-02-21T16:32:46.986Z,37.03
2019-02-21T16:35:16.167Z,31.63
2019-02-21T16:37:45.366Z,31.63
2019-02-21T16:40:14.753Z,35.80
2019-02-21T16:42:43.935Z,32.90
2019-02-21T16:45:14.136Z,37.27
2019-02-21T16:47:43.583Z,36.20
2019-02-21T16:50:13.546Z,33.83
2019-02-21T16:52:42.691Z,35.43
2019-02-21T16:55:14.339Z,33.97
2019-02-21T16:57:43.447Z,37.90
2019-02-21T17:00:14.732Z,41.70
2019-02-21T17:02:43.843Z,39.80
2019-02-21T17:05:13.596Z,38.53
2019-02-21T17:07:42.757Z,38.20
2019-02-21T17:10:11.955Z,34.93
2019-02-21T17:12:41.589Z,45.57
2019-02-21T17:15:11.606Z,44.23
2019-02-21T17:17:41.048Z,39.77
2019-02-21T17:20:12.399Z,39.93
2019-02-21T17:22:41.789Z,47.07
2019-02-21T17:25:11.735Z,46.70
2019-02-21T17:27:41.536Z,37.07
2019-02-21T17:30:12.608Z,39.77
2019-02-21T17:32:41.699Z,38.30
2019-02-21T17:35:11.167Z,40.70
2019-02-21T17:37:40.652Z,45.50
2019-02-21T17:40:12.132Z,41.17
2019-02-21T17:42:41.297Z,38.30
2019-02-21T17:45:10.924Z,42.90
2019-02-21T17:47:40.037Z,44.40
2019-02-21T17:50:11.017Z,48.93
2019-02-21T17:52:40.394Z,48.17
2019-02-21T17:55:09.860Z,46.03
2019-02-21T17:57:39.903Z,43.90
2019-02-21T18:00:13.634Z,43.47
2019-02-21T18:02:43.200Z,48.90
2019-02-21T18:05:12.488Z,39.90
2019-02-21T18:07:41.920Z,49.37
2019-02-21T18:10:12.819Z,47.17
2019-02-21T18:12:41.993Z,47.40
2019-02-21T18:15:11.690Z,52.70
2019-02-21T18:17:41.060Z,49.50
2019-02-21T18:20:10.848Z,54.03
2019-02-21T18:22:39.967Z,52.03
2019-02-21T18:25:12.501Z,44.70
2019-02-21T18:27:41.656Z,44.63
2019-02-21T18:30:15.575Z,50.87
2019-02-21T18:32:44.747Z,41.33
2019-02-21T18:35:14.436Z,47.27
2019-02-21T18:37:47.557Z,42.97
2019-02-21T18:40:18.497Z,43.90
2019-02-21T18:42:47.364Z,45.97
2019-02-21T18:45:17.136Z,44.90
2019-02-21T18:47:46.355Z,44.73
2019-02-21T18:50:16.213Z,47.10
2019-02-21T18:52:45.669Z,40.83
2019-02-21T18:55:17.932Z,44.93
2019-02-21T18:57:47.382Z,45.70
2019-02-21T19:00:18.862Z,47.93
2019-02-21T19:02:48.143Z,45.97
2019-02-21T19:05:17.344Z,42.10
2019-02-21T19:07:57.856Z,41.97
2019-02-21T19:10:17.995Z,43.20
2019-02-21T19:12:47.394Z,48.27
2019-02-21T19:15:18.098Z,44.57
2019-02-21T19:17:47.241Z,45.33
2019-02-21T19:20:16.791Z,43.00
2019-02-21T19:22:46.517Z,47.80
2019-02-21T19:25:15.932Z,46.80
2019-02-21T19:27:45.663Z,42.77
2019-02-21T19:30:18.424Z,43.70
2019-02-21T19:32:47.950Z,46.50
2019-02-21T19:35:17.434Z,46.23
2019-02-21T19:37:46.836Z,37.80
2019-02-21T19:40:16.040Z,42.03
2019-02-21T19:42:46.301Z,43.93
2019-02-21T19:45:15.660Z,46.13
2019-02-21T19:47:45.819Z,45.40
2019-02-21T19:50:16.843Z,44.93
2019-02-21T19:52:45.998Z,44.20
2019-02-21T19:55:15.993Z,50.13
2019-02-21T19:57:45.744Z,44.70
2019-02-21T20:00:17.575Z,46.00
2019-02-21T20:02:46.964Z,46.90
2019-02-21T20:05:16.650Z,49.20
2019-02-21T20:07:45.852Z,49.90
2019-02-21T20:10:15.359Z,46.87
2019-02-21T20:12:44.766Z,51.30
2019-02-21T20:15:14.434Z,53.17
2019-02-21T20:17:44.540Z,43.60
2019-02-21T20:20:15.190Z,48.80
2019-02-21T20:22:44.310Z,47.00
2019-02-21T20:25:13.541Z,46.60
2019-02-21T20:27:54.566Z,49.80
2019-02-21T20:30:24.060Z,52.90
2019-02-21T20:32:53.431Z,49.97
2019-02-21T20:35:22.584Z,50.43
2019-02-21T20:37:51.807Z,47.97
2019-02-21T20:40:20.971Z,42.07
2019-02-21T20:42:52.033Z,44.63
2019-02-21T20:45:21.492Z,50.63
2019-02-21T20:47:53.343Z,55.33
2019-02-21T20:50:24.272Z,48.90
2019-02-21T20:52:53.906Z,43.80
2019-02-21T20:55:23.622Z,51.30
2019-02-21T20:57:53.191Z,42.80
2019-02-21T21:00:22.464Z,49.93
2019-02-21T21:02:51.984Z,45.17
2019-02-21T21:05:21.425Z,48.03
2019-02-21T21:07:50.713Z,51.23
2019-02-21T21:10:19.998Z,51.27
2019-02-21T21:12:50.028Z,47.27
2019-02-21T21:15:19.838Z,47.27
2019-02-21T21:17:49.090Z,47.57
2019-02-21T21:20:18.298Z,49.57
2019-02-21T21:22:47.838Z,47.70
2019-02-21T21:25:17.507Z,41.40
2019-02-21T21:27:47.186Z,44.63
2019-02-21T21:30:16.474Z,47.20
2019-02-21T21:32:45.661Z,44.60
2019-02-21T21:35:14.847Z,50.00
2019-02-21T21:37:44.000Z,50.17
2019-02-21T21:40:13.913Z,49.97
2019-02-21T21:42:43.062Z,48.33
2019-02-21T21:45:14.978Z,55.33
2019-02-21T21:47:45.040Z,49.50
2019-02-21T21:50:15.757Z,46.47
2019-02-21T21:52:45.203Z,44.27
2019-02-21T21:55:14.346Z,54.77
2019-02-21T21:57:43.734Z,48.63
2019-02-21T22:00:17.910Z,48.20
2019-02-21T22:02:47.196Z,43.97
2019-02-21T22:05:16.314Z,53.93
2019-02-21T22:07:45.811Z,50.83
2019-02-21T22:10:15.506Z,47.53
2019-02-21T22:12:52.056Z,50.70
2019-02-21T22:15:21.502Z,106.20
2019-02-21T22:17:50.633Z,55.27
2019-02-21T22:20:19.873Z,52.40
2019-02-21T22:22:50.207Z,54.97
2019-02-21T22:25:19.710Z,49.27
2019-02-21T22:27:48.885Z,51.83
2019-02-21T22:30:18.288Z,48.80
2019-02-21T22:32:47.789Z,55.87
2019-02-21T22:35:17.254Z,47.57
2019-02-21T22:37:46.673Z,50.93
2019-02-21T22:40:16.083Z,54.57
2019-02-21T22:42:45.445Z,49.03
2019-02-21T22:45:14.703Z,53.30
2019-02-21T22:47:43.993Z,49.73
2019-02-21T22:50:14.364Z,49.30
2019-02-21T22:52:43.541Z,54.67
2019-02-21T22:55:12.951Z,49.43
2019-02-21T22:57:42.322Z,47.60
2019-02-21T23:01:00.898Z,48.00
2019-02-21T23:03:43.928Z,49.00
2019-02-21T23:06:49.618Z,53.23
2019-02-21T23:09:27.515Z,46.17
2019-02-21T23:11:56.230Z,52.10
2019-02-21T23:14:25.353Z,47.50
2019-02-21T23:16:54.799Z,47.13
2019-02-21T23:19:24.315Z,54.03
2019-02-21T23:21:53.859Z,49.23
2019-02-21T23:24:22.975Z,46.07
2019-02-21T23:26:52.685Z,51.57
2019-02-21T23:29:21.797Z,51.53
2019-02-21T23:31:51.025Z,47.37
2019-02-21T23:34:27.788Z,51.33
2019-02-21T23:36:57.206Z,49.17
2019-02-21T23:39:26.326Z,48.63
2019-02-21T23:41:55.444Z,42.70
2019-02-21T23:44:24.560Z,42.93
2019-02-21T23:46:54.339Z,52.40
2019-02-21T23:49:23.509Z,44.80
2019-02-21T23:51:52.725Z,42.20
2019-02-21T23:54:21.939Z,48.40
2019-02-21T23:56:51.066Z,43.63
2019-02-21T23:59:20.205Z,38.70
